Time;durP1;ratioP1;P1;durP2;ratioP2;P2;SDS_P1;SDS_P2;PMS_P1;PMS_P2;Temp;Humidity;BMP_temperature;BMP_pressure;BME280_temperature;BME280_humidity;BME280_pressure;Samples;Min_cycle;Max_cycle;Signal;HPM_P1;HPM_P2
2021/12/20 00:01:27;;;;;;;19.97;4.30;;;1.20;90.80;;;;;;5053035;28;20731;-90
2021/12/20 00:03:52;;;;;;;17.57;4.37;;;1.30;90.90;;;;;;5052987;28;20189;-89
2021/12/20 00:06:18;;;;;;;16.50;4.70;;;1.30;90.80;;;;;;5053036;28;20544;-89
2021/12/20 00:08:43;;;;;;;17.13;3.83;;;1.30;90.90;;;;;;5053194;28;20184;-89
2021/12/20 00:11:09;;;;;;;18.57;4.40;;;1.20;90.90;;;;;;5052885;28;20192;-90
2021/12/20 00:13:35;;;;;;;18.70;4.87;;;1.20;90.80;;;;;;5052913;28;20704;-89
2021/12/20 00:16:00;;;;;;;19.73;4.70;;;1.10;90.80;;;;;;5052801;28;20192;-88
2021/12/20 00:18:26;;;;;;;22.87;5.20;;;1.20;90.90;;;;;;5052912;28;20277;-89
2021/12/20 00:20:51;;;;;;;18.90;4.20;;;1.20;91.10;;;;;;5052765;28;20192;-88
2021/12/20 00:23:17;;;;;;;20.67;5.00;;;1.10;91.00;;;;;;5052850;28;20628;-89
2021/12/20 00:25:48;;;;;;;27.07;5.13;;;1.10;91.10;;;;;;5052456;28;20176;-89
2021/12/20 00:28:15;;;;;;;26.20;6.47;;;1.20;91.20;;;;;;5052920;28;20159;-89
2021/12/20 00:30:41;;;;;;;15.70;4.73;;;1.10;91.20;;;;;;5051437;28;20284;-89
2021/12/20 00:33:06;;;;;;;22.57;5.40;;;1.10;91.10;;;;;;5052983;28;20609;-89
2021/12/20 00:35:32;;;;;;;20.20;5.93;;;1.10;91.10;;;;;;5052609;28;20185;-89
2021/12/20 00:40:42;;;;;;;21.27;4.23;;;1.00;91.00;;;;;;5052815;28;20214;-89
2021/12/20 00:43:07;;;;;;;16.00;4.43;;;0.90;91.00;;;;;;5051436;28;20183;-89
2021/12/20 00:45:35;;;;;;;19.47;4.30;;;0.90;91.00;;;;;;5052786;28;20177;-90
2021/12/20 00:48:02;;;;;;;14.47;3.83;;;0.80;91.00;;;;;;5052692;28;20200;-89
2021/12/20 00:50:28;;;;;;;19.93;4.63;;;0.80;90.90;;;;;;5052412;28;20222;-89
2021/12/20 00:52:55;;;;;;;21.67;5.43;;;0.70;90.90;;;;;;5052611;28;20185;-89
2021/12/20 00:55:23;;;;;;;15.67;4.40;;;0.70;90.80;;;;;;5054153;28;20167;-89
2021/12/20 00:57:51;;;;;;;18.33;3.80;;;0.70;90.80;;;;;;5056258;28;20211;-88
2021/12/20 01:00:23;;;;;;;18.07;4.07;;;0.60;90.70;;;;;;5055524;28;20197;-87
2021/12/20 01:02:49;;;;;;;16.90;4.80;;;0.40;90.50;;;;;;5054925;28;20201;-88
2021/12/20 01:05:15;;;;;;;16.33;4.77;;;0.40;90.50;;;;;;5054743;28;20214;-88
2021/12/20 01:07:41;;;;;;;26.53;5.30;;;0.40;90.50;;;;;;5055119;28;20179;-88
2021/12/20 01:10:09;;;;;;;21.13;6.63;;;0.40;90.60;;;;;;5055841;28;20199;-88
2021/12/20 01:12:44;;;;;;;18.57;4.60;;;0.40;90.40;;;;;;5054690;28;20530;-88
2021/12/20 01:15:13;;;;;;;20.30;4.80;;;0.30;90.30;;;;;;5054651;28;20166;-88
2021/12/20 01:17:38;;;;;;;18.03;4.50;;;0.40;90.20;;;;;;5055848;28;20174;-88
2021/12/20 01:20:09;;;;;;;16.23;4.80;;;0.30;90.10;;;;;;5055697;28;20184;-88
2021/12/20 01:22:34;;;;;;;22.27;5.23;;;0.30;90.10;;;;;;5055827;28;20163;-89
2021/12/20 01:25:01;;;;;;;17.90;4.47;;;0.30;90.10;;;;;;5055742;28;20173;-88
2021/12/20 01:27:26;;;;;;;28.53;5.83;;;0.30;90.10;;;;;;5055647;28;20529;-88
2021/12/20 01:29:52;;;;;;;16.83;4.87;;;0.30;90.00;;;;;;5054316;28;20231;-88
2021/12/20 01:32:18;;;;;;;18.07;4.47;;;0.20;89.90;;;;;;5055567;28;20550;-88
2021/12/20 01:34:43;;;;;;;18.83;4.30;;;0.30;90.00;;;;;;5055567;28;20646;-88
2021/12/20 01:37:09;;;;;;;20.93;4.30;;;0.20;89.80;;;;;;5055488;28;20188;-88
2021/12/20 01:39:35;;;;;;;7.40;3.47;;;0.30;89.70;;;;;;5054089;28;20182;-88
2021/12/20 01:42:03;;;;;;;24.17;4.70;;;0.30;89.60;;;;;;5055404;28;20173;-89
2021/12/20 01:44:30;;;;;;;19.60;4.63;;;0.30;89.40;;;;;;5054026;28;20178;-88
2021/12/20 01:46:56;;;;;;;16.80;3.93;;;0.30;89.20;;;;;;5054212;28;20592;-89
2021/12/20 01:49:22;;;;;;;15.83;4.50;;;0.30;89.10;;;;;;5055311;28;20178;-88
2021/12/20 01:52:01;;;;;;;22.40;4.17;;;0.30;89.00;;;;;;5055112;28;20186;-89
2021/12/20 01:54:28;;;;;;;20.07;4.23;;;0.20;88.80;;;;;;5053992;28;20633;-89
2021/12/20 01:56:54;;;;;;;17.83;3.87;;;0.10;88.80;;;;;;5054617;28;20196;-89
2021/12/20 01:59:19;;;;;;;15.17;4.07;;;0.20;88.80;;;;;;5053792;28;20178;-88
2021/12/20 02:01:46;;;;;;;20.50;4.23;;;0.20;88.90;;;;;;5053622;28;20177;-89
2021/12/20 02:04:13;;;;;;;14.23;3.80;;;0.20;88.80;;;;;;5055273;28;20168;-88
2021/12/20 02:06:40;;;;;;;15.70;3.37;;;0.20;88.70;;;;;;5053299;28;20338;-89
2021/12/20 02:09:09;;;;;;;17.20;4.50;;;0.20;88.80;;;;;;5054874;28;20182;-89
2021/12/20 02:11:37;;;;;;;18.90;3.70;;;0.30;89.00;;;;;;5054786;28;20293;-88
2021/12/20 02:14:04;;;;;;;19.40;4.17;;;0.30;88.90;;;;;;5054764;28;20177;-88
2021/12/20 02:16:30;;;;;;;23.30;4.20;;;0.30;89.00;;;;;;5054638;28;20194;-88
2021/12/20 02:18:56;;;;;;;25.53;4.73;;;0.20;89.00;;;;;;5054761;28;20252;-88
2021/12/20 02:21:22;;;;;;;24.13;4.37;;;0.30;89.00;;;;;;5053775;28;20220;-88
2021/12/20 02:23:48;;;;;;;17.93;4.23;;;0.20;88.90;;;;;;5053325;28;20211;-88
2021/12/20 02:26:18;;;;;;;20.10;4.67;;;0.20;89.00;;;;;;5054812;28;20216;-88
2021/12/20 02:28:46;;;;;;;19.47;4.50;;;0.30;88.90;;;;;;5053497;28;20185;-88
2021/12/20 02:39:17;;;;;;;17.47;4.17;;;0.30;88.60;;;;;;5054831;28;20200;-88
2021/12/20 02:41:44;;;;;;;22.10;4.43;;;0.40;88.50;;;;;;5054458;28;20188;-88
2021/12/20 02:44:20;;;;;;;12.30;3.97;;;0.30;88.20;;;;;;5052984;28;20181;-88
2021/12/20 02:47:03;;;;;;;15.23;3.53;;;0.30;88.10;;;;;;5053115;28;20179;-88
2021/12/20 02:49:29;;;;;;;13.73;4.07;;;0.40;88.30;;;;;;5054361;28;20161;-88
2021/12/20 02:52:04;;;;;;;17.47;4.93;;;0.30;88.40;;;;;;5053032;28;20195;-88
2021/12/20 02:54:30;;;;;;;11.23;3.73;;;0.50;89.00;;;;;;5052823;28;20191;-88
2021/12/20 02:56:55;;;;;;;17.67;3.60;;;0.40;89.00;;;;;;5052596;28;20201;-88
2021/12/20 02:59:21;;;;;;;15.10;4.13;;;0.40;89.10;;;;;;5054097;28;20222;-88
2021/12/20 03:01:52;;;;;;;15.47;4.43;;;0.40;89.10;;;;;;5052696;28;20179;-88
2021/12/20 03:04:18;;;;;;;11.37;3.97;;;0.40;89.40;;;;;;5053855;28;20159;-88
2021/12/20 03:06:47;;;;;;;14.50;3.20;;;0.30;89.60;;;;;;5054149;28;20187;-88
2021/12/20 03:09:17;;;;;;;14.80;4.13;;;0.40;89.90;;;;;;5053827;28;20246;-88
2021/12/20 03:11:45;;;;;;;15.53;4.10;;;0.40;90.10;;;;;;5053743;28;20186;-88
2021/12/20 03:14:18;;;;;;;12.33;3.10;;;0.30;90.00;;;;;;5052785;28;20292;-88
2021/12/20 03:16:43;;;;;;;16.53;3.90;;;0.30;90.20;;;;;;5053124;28;20208;-88
2021/12/20 03:19:09;;;;;;;13.53;3.27;;;0.50;90.40;;;;;;5051921;28;20264;-88
2021/12/20 03:21:35;;;;;;;8.47;3.10;;;0.50;90.20;;;;;;5052388;28;20230;-88
2021/12/20 03:24:01;;;;;;;12.93;3.00;;;0.40;90.00;;;;;;5053557;28;20165;-88
2021/12/20 03:26:27;;;;;;;12.77;3.50;;;0.40;90.10;;;;;;5052617;28;20179;-88
2021/12/20 03:28:52;;;;;;;17.50;3.90;;;0.50;90.10;;;;;;5052223;28;20209;-88
2021/12/20 03:31:18;;;;;;;18.53;4.27;;;0.60;90.20;;;;;;5052567;28;20242;-88
2021/12/20 03:33:44;;;;;;;12.40;3.30;;;0.50;90.30;;;;;;5052131;28;20559;-88
2021/12/20 03:36:10;;;;;;;17.37;4.67;;;0.50;90.60;;;;;;5052005;28;20198;-88
2021/12/20 03:38:37;;;;;;;14.53;4.10;;;0.50;90.70;;;;;;5052068;28;20199;-88
2021/12/20 03:41:03;;;;;;;15.37;4.23;;;0.50;90.80;;;;;;5052071;28;20264;-88
2021/12/20 03:43:31;;;;;;;15.60;3.97;;;0.40;91.10;;;;;;5052376;28;20180;-88
2021/12/20 03:46:01;;;;;;;22.20;4.23;;;0.30;91.30;;;;;;5053488;28;20680;-88
2021/12/20 03:48:27;;;;;;;17.23;4.33;;;0.30;91.40;;;;;;5052002;28;20194;-88
2021/12/20 03:50:54;;;;;;;14.77;4.23;;;0.20;91.40;;;;;;5053416;28;20311;-88
2021/12/20 03:53:20;;;;;;;15.57;4.27;;;0.20;91.50;;;;;;5053435;28;20239;-88
2021/12/20 03:55:46;;;;;;;11.03;3.53;;;0.20;91.50;;;;;;5053351;28;20209;-88
2021/12/20 03:58:12;;;;;;;17.57;3.60;;;0.30;91.70;;;;;;5052166;28;20214;-88
2021/12/20 04:00:38;;;;;;;13.07;4.03;;;0.30;91.60;;;;;;5053010;28;20188;-88
2021/12/20 04:03:09;;;;;;;8.20;2.60;;;0.40;91.40;;;;;;5051874;28;20202;-88
2021/12/20 04:05:35;;;;;;;13.03;3.83;;;0.40;91.20;;;;;;5051966;28;20172;-88
2021/12/20 04:08:01;;;;;;;12.47;3.27;;;0.40;91.00;;;;;;5052486;28;20187;-88
2021/12/20 04:10:27;;;;;;;15.13;3.47;;;0.50;90.80;;;;;;5052263;28;20199;-88
2021/12/20 04:12:52;;;;;;;12.57;3.13;;;0.50;90.50;;;;;;5052036;28;20202;-88
2021/12/20 04:15:18;;;;;;;9.53;3.60;;;0.40;90.50;;;;;;5051618;28;20180;-88
2021/12/20 04:17:44;;;;;;;11.63;3.50;;;0.30;90.40;;;;;;5052475;28;20177;-88
2021/12/20 04:20:10;;;;;;;9.50;2.87;;;0.30;90.50;;;;;;5052863;28;20211;-88
2021/12/20 04:22:35;;;;;;;11.60;3.27;;;0.40;90.70;;;;;;5051580;28;20174;-88
2021/12/20 04:25:02;;;;;;;8.93;3.57;;;0.30;90.60;;;;;;5051720;28;20230;-88
2021/12/20 04:27:27;;;;;;;15.57;3.43;;;0.40;90.80;;;;;;5051883;28;20177;-88
2021/12/20 04:29:54;;;;;;;9.90;4.23;;;0.30;90.90;;;;;;5054154;28;20246;-88
2021/12/20 04:32:20;;;;;;;11.20;3.57;;;0.40;90.90;;;;;;5055448;28;20191;-88
2021/12/20 04:34:46;;;;;;;10.30;3.23;;;0.40;90.90;;;;;;5055544;28;20174;-88
2021/12/20 04:37:12;;;;;;;9.17;3.07;;;0.30;90.80;;;;;;5056925;28;20202;-88
2021/12/20 04:39:37;;;;;;;9.63;3.13;;;0.30;90.70;;;;;;5055299;28;20181;-88
2021/12/20 04:42:04;;;;;;;12.60;3.37;;;0.20;90.70;;;;;;5055659;28;20228;-88
2021/12/20 04:44:30;;;;;;;14.60;3.83;;;0.20;90.80;;;;;;5055313;28;20721;-88
2021/12/20 04:46:55;;;;;;;15.17;4.00;;;0.20;90.70;;;;;;5056493;28;20549;-88
2021/12/20 04:49:24;;;;;;;12.00;4.60;;;0.10;90.60;;;;;;5055104;28;20176;-87
2021/12/20 04:51:53;;;;;;;19.93;4.73;;;0.10;90.50;;;;;;5055436;28;20557;-88
2021/12/20 04:54:19;;;;;;;14.57;4.70;;;0.10;90.60;;;;;;5056372;28;20199;-88
2021/12/20 04:56:45;;;;;;;14.33;5.07;;;0.20;90.60;;;;;;5054996;28;20231;-88
2021/12/20 04:59:11;;;;;;;18.17;4.70;;;0.10;90.50;;;;;;5055024;28;20540;-88
2021/12/20 05:01:37;;;;;;;17.27;4.87;;;0.20;90.50;;;;;;5054903;28;20198;-88
2021/12/20 05:04:02;;;;;;;20.23;5.43;;;0.10;90.40;;;;;;5055014;28;20648;-88
2021/12/20 05:06:31;;;;;;;13.20;4.33;;;0.10;90.30;;;;;;5054870;28;20542;-88
2021/12/20 05:08:57;;;;;;;18.97;4.70;;;0.00;90.30;;;;;;5055154;28;20176;-88
2021/12/20 05:11:24;;;;;;;15.43;4.90;;;0.00;90.40;;;;;;5055035;28;20203;-88
2021/12/20 05:13:49;;;;;;;11.70;4.30;;;0.00;90.40;;;;;;5054814;28;20200;-88
2021/12/20 05:16:15;;;;;;;12.10;4.23;;;0.00;90.40;;;;;;5055966;28;20277;-88
2021/12/20 05:18:41;;;;;;;12.07;4.53;;;0.00;90.20;;;;;;5054731;28;20592;-88
2021/12/20 05:21:06;;;;;;;9.47;4.23;;;0.00;90.20;;;;;;5055726;28;20187;-88
2021/12/20 05:23:32;;;;;;;14.13;4.40;;;0.00;90.10;;;;;;5054858;28;20172;-88
2021/12/20 05:25:57;;;;;;;17.97;4.50;;;0.00;90.20;;;;;;5054489;28;20178;-88
2021/12/20 05:28:24;;;;;;;15.80;4.17;;;0.00;90.20;;;;;;5054453;28;20176;-88
2021/12/20 05:30:52;;;;;;;10.67;3.20;;;0.10;90.10;;;;;;5054658;28;20207;-88
2021/12/20 05:33:18;;;;;;;12.97;3.57;;;0.00;89.90;;;;;;5054466;28;20220;-88
2021/12/20 05:35:43;;;;;;;10.80;3.40;;;0.00;89.70;;;;;;5054239;28;20738;-87
2021/12/20 05:38:09;;;;;;;9.03;3.13;;;0.00;89.70;;;;;;5054245;28;20176;-88
2021/12/20 05:40:35;;;;;;;9.30;2.83;;;0.00;89.50;;;;;;5055036;28;20192;-88
2021/12/20 05:43:01;;;;;;;6.07;2.50;;;0.00;89.50;;;;;;5054427;28;20298;-87
2021/12/20 05:45:27;;;;;;;8.70;2.93;;;0.00;89.30;;;;;;5054300;28;20178;-88
2021/12/20 05:47:53;;;;;;;12.00;3.37;;;0.00;89.00;;;;;;5054128;28;20552;-88
2021/12/20 05:50:20;;;;;;;9.10;2.43;;;0.10;88.80;;;;;;5054218;28;20206;-88
2021/12/20 05:52:46;;;;;;;13.67;2.97;;;0.20;88.40;;;;;;5055306;28;20171;-88
2021/12/20 05:55:12;;;;;;;10.40;2.63;;;0.30;88.10;;;;;;5055359;28;20534;-88
2021/12/20 05:57:38;;;;;;;10.97;3.00;;;0.20;87.90;;;;;;5053974;28;20202;-87
2021/12/20 06:00:14;;;;;;;10.17;2.57;;;0.20;87.70;;;;;;5053814;28;20544;-88
2021/12/20 06:02:41;;;;;;;4.93;2.27;;;0.30;87.60;;;;;;5055435;28;20600;-88
2021/12/20 06:05:08;;;;;;;12.17;2.37;;;0.30;87.40;;;;;;5054052;28;20702;-88
2021/12/20 06:07:38;;;;;;;12.10;2.70;;;0.20;87.30;;;;;;5053986;28;20183;-88
2021/12/20 06:10:04;;;;;;;10.33;2.77;;;0.10;87.30;;;;;;5053848;28;20202;-88
2021/12/20 06:12:29;;;;;;;9.07;2.57;;;0.10;87.40;;;;;;5055093;28;20256;-88
2021/12/20 06:14:55;;;;;;;7.33;3.33;;;0.30;87.30;;;;;;5053924;28;20225;-88
2021/12/20 06:17:22;;;;;;;12.77;2.67;;;0.30;87.10;;;;;;5053777;28;20562;-88
2021/12/20 06:19:48;;;;;;;11.73;2.57;;;0.30;87.00;;;;;;5053489;28;20281;-88
2021/12/20 06:22:13;;;;;;;8.87;2.30;;;0.20;86.80;;;;;;5053514;28;20270;-88
2021/12/20 06:24:39;;;;;;;5.90;2.27;;;0.30;86.90;;;;;;5054892;28;20630;-88
2021/12/20 06:27:05;;;;;;;9.97;2.83;;;0.10;86.80;;;;;;5053330;28;20216;-88
2021/12/20 06:29:31;;;;;;;7.77;2.23;;;0.10;86.90;;;;;;5054736;28;20184;-87
2021/12/20 06:31:56;;;;;;;12.83;2.70;;;0.20;86.90;;;;;;5053497;28;20562;-88
2021/12/20 06:34:22;;;;;;;7.40;2.37;;;0.30;86.50;;;;;;5054290;28;20184;-88
2021/12/20 06:36:48;;;;;;;14.17;2.30;;;0.30;86.40;;;;;;5052980;28;20577;-88
2021/12/20 06:39:14;;;;;;;8.73;2.60;;;0.30;86.30;;;;;;5053539;28;20183;-88
2021/12/20 06:41:39;;;;;;;6.97;1.93;;;0.30;86.10;;;;;;5053235;28;20198;-88
2021/12/20 06:44:05;;;;;;;13.77;2.37;;;0.30;86.00;;;;;;5054216;28;20201;-88
2021/12/20 06:46:34;;;;;;;11.07;2.67;;;0.20;86.00;;;;;;5052970;28;20188;-88
2021/12/20 06:49:00;;;;;;;10.77;3.77;;;0.20;86.10;;;;;;5053712;28;20188;-88
2021/12/20 06:51:26;;;;;;;9.83;2.47;;;0.00;86.10;;;;;;5053745;28;20602;-88
2021/12/20 06:53:54;;;;;;;11.00;3.03;;;0.00;86.30;;;;;;5052072;28;20182;-87
2021/12/20 06:56:20;;;;;;;5.33;2.10;;;0.00;86.60;;;;;;5053955;28;20202;-88
2021/12/20 06:58:45;;;;;;;8.43;2.67;;;0.00;86.50;;;;;;5052849;28;20178;-88
2021/12/20 07:01:11;;;;;;;10.43;3.40;;;-0.10;86.60;;;;;;5053156;28;20222;-87
2021/12/20 07:03:37;;;;;;;9.77;2.80;;;-0.20;86.90;;;;;;5054245;28;20247;-88
2021/12/20 07:06:03;;;;;;;8.30;2.60;;;-0.30;87.00;;;;;;5052645;28;20209;-88
2021/12/20 07:08:28;;;;;;;9.53;2.57;;;-0.30;87.20;;;;;;5052563;28;20614;-87
2021/12/20 07:10:54;;;;;;;11.00;4.07;;;-0.30;87.20;;;;;;5052551;28;20203;-87
2021/12/20 07:13:21;;;;;;;6.10;3.47;;;-0.30;87.20;;;;;;5052556;28;20665;-87
2021/12/20 07:15:47;;;;;;;7.40;2.70;;;-0.30;87.20;;;;;;5052347;28;20631;-87
2021/12/20 07:18:12;;;;;;;8.60;2.20;;;-0.40;87.20;;;;;;5052905;28;20269;-87
2021/12/20 07:20:38;;;;;;;8.67;2.87;;;-0.30;87.40;;;;;;5052301;28;20566;-87
2021/12/20 07:23:05;;;;;;;10.33;2.50;;;-0.40;87.40;;;;;;5053878;28;20260;-88
2021/12/20 07:25:30;;;;;;;5.47;2.90;;;-0.40;87.40;;;;;;5053607;28;20169;-88
2021/12/20 07:27:56;;;;;;;12.97;2.77;;;-0.30;87.60;;;;;;5052295;28;20267;-88
2021/12/20 07:30:22;;;;;;;4.77;2.57;;;-0.30;87.50;;;;;;5053768;28;20195;-88
2021/12/20 07:32:48;;;;;;;5.97;2.20;;;-0.30;87.40;;;;;;5052249;28;20211;-87
2021/12/20 07:35:14;;;;;;;6.67;2.07;;;-0.30;87.40;;;;;;5053752;28;20222;-88
2021/12/20 07:37:40;;;;;;;11.73;2.97;;;-0.30;87.40;;;;;;5052213;28;20708;-88
2021/12/20 07:40:07;;;;;;;12.73;2.10;;;-0.30;87.30;;;;;;5052057;28;20195;-87
2021/12/20 07:42:33;;;;;;;4.50;2.23;;;-0.30;87.30;;;;;;5052122;28;20177;-87
2021/12/20 07:44:59;;;;;;;7.23;2.30;;;-0.30;87.20;;;;;;5052029;28;20173;-88
2021/12/20 07:47:25;;;;;;;10.20;2.87;;;-0.30;87.30;;;;;;5052052;28;20183;-87
2021/12/20 07:49:50;;;;;;;16.60;3.90;;;-0.30;87.30;;;;;;5052957;28;20227;-87
2021/12/20 07:52:16;;;;;;;12.77;3.83;;;-0.10;87.20;;;;;;5052095;28;20240;-88
2021/12/20 07:54:42;;;;;;;10.40;3.67;;;-0.10;87.10;;;;;;5052086;28;20178;-88
2021/12/20 07:57:07;;;;;;;10.10;3.33;;;-0.10;86.90;;;;;;5053118;28;20194;-88
2021/12/20 07:59:33;;;;;;;5.63;2.17;;;-0.20;86.90;;;;;;5053091;28;20165;-87
2021/12/20 08:01:59;;;;;;;7.93;2.20;;;-0.20;86.90;;;;;;5052955;28;20646;-88
2021/12/20 08:04:24;;;;;;;6.80;2.23;;;-0.30;87.00;;;;;;5053960;28;20185;-88
2021/12/20 08:06:50;;;;;;;8.47;2.60;;;-0.20;87.10;;;;;;5055955;28;20198;-88
2021/12/20 08:09:16;;;;;;;7.60;2.57;;;-0.20;87.00;;;;;;5057141;28;20181;-87
2021/12/20 08:11:42;;;;;;;11.10;2.70;;;-0.30;87.00;;;;;;5055872;28;20201;-88
2021/12/20 08:14:08;;;;;;;9.37;3.20;;;-0.20;87.00;;;;;;5055966;28;20664;-88
2021/12/20 08:16:34;;;;;;;11.13;3.40;;;-0.30;87.10;;;;;;5056924;28;20235;-87
2021/12/20 08:19:00;;;;;;;13.83;4.07;;;-0.20;87.10;;;;;;5055844;28;20177;-88
2021/12/20 08:21:25;;;;;;;12.30;3.63;;;0.00;87.10;;;;;;5055723;28;20207;-87
2021/12/20 08:23:51;;;;;;;7.80;3.17;;;0.00;86.90;;;;;;5055684;28;20614;-88
2021/12/20 08:26:17;;;;;;;8.17;3.20;;;0.10;86.60;;;;;;5056220;28;20183;-87
2021/12/20 08:28:43;;;;;;;6.17;2.77;;;0.00;86.40;;;;;;5055817;28;20580;-87
2021/12/20 08:31:09;;;;;;;8.23;2.80;;;0.00;86.40;;;;;;5055512;28;20226;-87
2021/12/20 08:33:36;;;;;;;5.97;2.50;;;0.10;86.20;;;;;;5055598;28;20202;-87
2021/12/20 08:36:10;;;;;;;7.90;2.60;;;0.10;86.10;;;;;;5055928;28;20211;-87
2021/12/20 08:38:35;;;;;;;7.43;2.73;;;0.10;86.00;;;;;;5056322;28;20192;-87
2021/12/20 08:41:02;;;;;;;11.57;3.00;;;0.10;86.00;;;;;;5055289;28;20203;-87
2021/12/20 08:43:29;;;;;;;7.50;2.40;;;0.00;86.10;;;;;;5055310;28;20174;-87
2021/12/20 08:45:55;;;;;;;13.57;3.23;;;0.00;86.20;;;;;;5055244;28;20182;-88
2021/12/20 08:48:21;;;;;;;5.87;2.77;;;0.00;86.60;;;;;;5055210;28;20627;-87
2021/12/20 08:50:47;;;;;;;10.07;2.03;;;0.00;86.60;;;;;;5056510;28;20275;-87
2021/12/20 08:53:13;;;;;;;10.17;2.70;;;0.00;86.70;;;;;;5055159;28;20187;-88
2021/12/20 08:55:40;;;;;;;7.77;2.50;;;0.10;86.70;;;;;;5055099;28;20265;-88
2021/12/20 08:58:06;;;;;;;9.47;2.33;;;0.10;86.50;;;;;;5054958;28;20180;-87
2021/12/20 09:00:35;;;;;;;6.63;2.40;;;0.20;86.30;;;;;;5054977;28;20549;-87
2021/12/20 09:03:01;;;;;;;4.40;2.20;;;0.30;86.40;;;;;;5055042;28;20199;-87
2021/12/20 09:05:28;;;;;;;6.20;2.10;;;0.30;86.30;;;;;;5054981;28;20703;-87
2021/12/20 09:07:56;;;;;;;9.53;2.73;;;0.40;86.30;;;;;;5056070;28;20180;-87
2021/12/20 09:10:22;;;;;;;7.80;2.30;;;0.50;85.50;;;;;;5054758;28;20239;-87
2021/12/20 09:12:48;;;;;;;9.07;2.40;;;0.50;85.40;;;;;;5054716;28;20180;-87
2021/12/20 09:15:17;;;;;;;7.27;2.77;;;0.50;85.40;;;;;;5054853;28;20177;-87
2021/12/20 09:17:50;;;;;;;6.27;2.57;;;0.50;85.50;;;;;;5055466;28;20239;-88
2021/12/20 09:20:17;;;;;;;9.27;2.37;;;0.60;85.50;;;;;;5055460;28;20208;-88
2021/12/20 09:22:50;;;;;;;9.07;2.77;;;0.60;85.60;;;;;;5054656;28;20170;-88
2021/12/20 09:25:26;;;;;;;6.77;2.20;;;0.50;85.70;;;;;;5056079;28;20152;-87
2021/12/20 09:27:54;;;;;;;11.07;2.53;;;0.80;86.00;;;;;;5056288;28;20168;-87
2021/12/20 09:30:22;;;;;;;5.50;2.60;;;0.80;85.30;;;;;;5054358;28;20203;-87
2021/12/20 09:32:47;;;;;;;5.57;3.17;;;1.00;85.50;;;;;;5055581;28;20553;-87
2021/12/20 09:35:13;;;;;;;10.87;2.60;;;1.00;85.50;;;;;;5054344;28;20176;-87
2021/12/20 09:37:40;;;;;;;7.97;2.47;;;1.00;85.60;;;;;;5055436;28;20204;-87
2021/12/20 09:40:08;;;;;;;7.43;2.50;;;1.10;86.00;;;;;;5054807;28;20201;-87
2021/12/20 09:42:34;;;;;;;8.57;2.53;;;1.30;85.80;;;;;;5054176;28;20554;-87
2021/12/20 09:45:03;;;;;;;8.00;3.07;;;1.30;86.30;;;;;;5054235;28;20187;-87
2021/12/20 09:47:33;;;;;;;6.57;2.63;;;1.30;86.60;;;;;;5054131;28;20181;-87
2021/12/20 09:50:03;;;;;;;12.93;2.87;;;1.50;86.60;;;;;;5055312;28;20638;-87
2021/12/20 09:52:29;;;;;;;9.20;2.90;;;1.40;86.70;;;;;;5054106;28;20204;-87
2021/12/20 09:54:55;;;;;;;11.13;2.87;;;1.70;86.80;;;;;;5053936;28;20212;-87
2021/12/20 09:57:21;;;;;;;9.53;2.60;;;1.70;86.60;;;;;;5053852;28;20208;-87
2021/12/20 09:59:48;;;;;;;5.67;2.70;;;1.50;86.40;;;;;;5053846;28;20199;-87
2021/12/20 10:02:16;;;;;;;13.17;2.70;;;1.50;86.70;;;;;;5055121;28;20721;-87
2021/12/20 10:04:41;;;;;;;2.80;1.97;;;1.60;86.70;;;;;;5055243;28;20185;-87
2021/12/20 10:07:08;;;;;;;4.40;1.80;;;1.80;85.50;;;;;;5054976;28;20179;-87
2021/12/20 10:09:36;;;;;;;7.50;2.10;;;1.80;84.70;;;;;;5053686;28;20827;-87
2021/12/20 10:12:14;;;;;;;8.97;2.23;;;1.80;84.70;;;;;;5053652;28;20193;-87
2021/12/20 10:14:56;;;;;;;6.80;2.23;;;1.90;84.20;;;;;;5053954;28;20639;-87
2021/12/20 10:17:22;;;;;;;4.93;2.10;;;2.10;83.70;;;;;;5053592;28;20208;-88
2021/12/20 10:19:49;;;;;;;5.53;2.33;;;2.10;84.20;;;;;;5054690;28;20201;-87
2021/12/20 10:22:25;;;;;;;7.93;2.63;;;2.00;84.50;;;;;;5053428;28;20216;-88
2021/12/20 10:24:52;;;;;;;9.60;2.90;;;2.00;84.60;;;;;;5054684;28;20243;-88
2021/12/20 10:27:36;;;;;;;9.80;2.73;;;2.00;85.10;;;;;;5053169;28;20182;-88
2021/12/20 10:30:22;;;;;;;6.57;2.47;;;2.20;86.10;;;;;;5054852;28;20195;-88
2021/12/20 10:32:48;;;;;;;3.23;2.17;;;2.30;86.20;;;;;;5053432;28;20181;-88
2021/12/20 10:35:26;;;;;;;7.40;2.63;;;2.30;85.70;;;;;;5054699;28;20229;-89
2021/12/20 10:37:54;;;;;;;7.03;2.83;;;2.30;85.20;;;;;;5054428;28;20261;-90
2021/12/20 10:40:20;;;;;;;6.90;2.50;;;2.40;84.80;;;;;;5053106;28;20199;-89
2021/12/20 10:42:45;;;;;;;5.83;2.13;;;2.50;84.50;;;;;;5054522;28;20180;-89
2021/12/20 10:45:18;;;;;;;7.00;2.90;;;2.50;84.40;;;;;;5053110;28;20176;-89
2021/12/20 10:47:48;;;;;;;7.17;2.77;;;2.70;84.60;;;;;;5053278;28;20182;-89
2021/12/20 10:50:34;;;;;;;5.20;2.13;;;3.00;85.10;;;;;;5052792;28;20565;-89
2021/12/20 10:53:18;;;;;;;8.20;2.50;;;3.00;84.30;;;;;;5052846;28;20180;-89
2021/12/20 10:55:48;;;;;;;4.73;2.20;;;3.10;84.10;;;;;;5053944;28;20313;-90
2021/12/20 10:58:22;;;;;;;4.97;2.97;;;3.40;83.40;;;;;;5053319;28;20199;-89
2021/12/20 11:01:41;;;;;;;8.07;3.80;;;3.60;84.60;;;;;;5052723;28;20199;-89
2021/12/20 11:04:11;;;;;;;11.03;3.50;;;3.90;85.30;;;;;;5052715;28;20640;-90
2021/12/20 11:06:44;;;;;;;7.53;2.70;;;3.90;84.10;;;;;;5053824;28;20263;-90
2021/12/20 11:09:17;;;;;;;6.97;2.60;;;3.90;84.00;;;;;;5052673;28;20179;-90
2021/12/20 11:11:49;;;;;;;8.10;2.90;;;4.10;81.50;;;;;;5052943;28;20207;-90
2021/12/20 11:14:16;;;;;;;8.43;2.33;;;4.00;81.50;;;;;;5052493;28;20651;-90
2021/12/20 11:16:45;;;;;;;8.57;2.90;;;4.20;82.20;;;;;;5053644;28;20193;-90
2021/12/20 11:19:24;;;;;;;9.50;2.60;;;4.20;81.30;;;;;;5053647;28;20199;-90
2021/12/20 11:22:00;;;;;;;9.37;2.83;;;4.40;81.70;;;;;;5053744;28;20161;-89
2021/12/20 11:24:29;;;;;;;5.50;2.67;;;4.50;81.40;;;;;;5053866;28;20521;-89
2021/12/20 11:26:56;;;;;;;6.53;2.53;;;4.60;80.70;;;;;;5052523;28;20285;-90
2021/12/20 11:29:22;;;;;;;5.43;2.63;;;4.70;80.40;;;;;;5053589;28;20588;-89
2021/12/20 11:31:49;;;;;;;6.53;2.43;;;4.70;79.10;;;;;;5053451;28;20169;-90
2021/12/20 11:34:16;;;;;;;5.00;2.20;;;4.90;79.60;;;;;;5053414;28;20658;-89
2021/12/20 11:36:41;;;;;;;9.03;2.40;;;5.10;79.40;;;;;;5053321;28;20203;-90
2021/12/20 11:39:08;;;;;;;4.03;2.13;;;5.20;77.20;;;;;;5052690;28;20170;-90
2021/12/20 11:41:34;;;;;;;6.17;2.33;;;5.30;78.20;;;;;;5053157;28;20218;-90
2021/12/20 11:44:01;;;;;;;9.00;2.53;;;5.40;78.10;;;;;;5052151;28;20700;-90
2021/12/20 11:47:02;;;;;;;6.30;2.30;;;5.40;75.80;;;;;;5053250;28;20173;-89
2021/12/20 11:49:28;;;;;;;7.13;3.20;;;5.30;75.80;;;;;;5038666;28;20198;-89
2021/12/20 11:52:03;;;;;;;6.13;2.87;;;5.30;77.50;;;;;;5051917;28;20203;-90
2021/12/20 11:54:47;;;;;;;7.30;3.10;;;5.30;78.10;;;;;;5053726;28;20190;-90
2021/12/20 11:57:28;;;;;;;6.43;2.80;;;5.50;78.20;;;;;;5053079;28;20617;-90
2021/12/20 12:00:14;;;;;;;6.67;2.47;;;5.50;76.60;;;;;;5053057;28;20190;-90
2021/12/20 12:02:42;;;;;;;6.27;2.80;;;5.50;77.20;;;;;;5053430;28;20527;-90
2021/12/20 12:05:11;;;;;;;14.00;2.70;;;5.60;77.10;;;;;;5051841;28;20332;-91
2021/12/20 12:07:38;;;;;;;7.07;2.57;;;5.80;77.60;;;;;;5051844;28;20190;-90
2021/12/20 12:10:07;;;;;;;7.40;2.83;;;5.70;76.70;;;;;;5053034;28;20278;-90
2021/12/20 12:12:39;;;;;;;4.73;2.90;;;5.70;77.10;;;;;;5053306;28;20179;-90
2021/12/20 12:15:32;;;;;;;12.67;3.03;;;5.70;76.80;;;;;;5053368;28;20227;-89
2021/12/20 12:18:03;;;;;;;8.23;2.40;;;5.70;76.40;;;;;;5051919;28;20623;-89
2021/12/20 12:20:47;;;;;;;4.90;2.40;;;5.80;76.50;;;;;;5051700;28;20762;-89
2021/12/20 12:23:13;;;;;;;6.17;2.47;;;5.40;75.40;;;;;;5052993;28;20160;-90
2021/12/20 12:25:45;;;;;;;8.97;3.03;;;5.20;75.20;;;;;;5053153;28;20225;-90
2021/12/20 12:28:14;;;;;;;9.20;2.53;;;5.20;76.80;;;;;;5052529;28;20189;-90
2021/12/20 12:30:54;;;;;;;9.93;2.90;;;5.30;76.50;;;;;;5052806;28;20281;-90
2021/12/20 12:33:20;;;;;;;10.43;2.70;;;5.30;78.30;;;;;;5052985;28;20164;-90
2021/12/20 12:35:51;;;;;;;9.67;2.80;;;5.30;77.70;;;;;;5052724;28;20183;-89
2021/12/20 12:38:57;;;;;;;7.60;3.13;;;5.40;78.20;;;;;;5052889;28;20168;-90
2021/12/20 12:41:25;;;;;;;7.00;2.80;;;5.30;79.20;;;;;;4972036;28;20214;-89
2021/12/20 12:44:05;;;;;;;8.03;3.20;;;5.30;77.60;;;;;;4955938;28;20182;-89
2021/12/20 12:46:37;;;;;;;9.73;2.90;;;5.10;77.10;;;;;;5019787;28;20198;-92
2021/12/20 12:49:29;;;;;;;9.63;2.93;;;5.10;77.50;;;;;;5052660;28;20204;-90
2021/12/20 12:52:29;;;;;;;11.83;3.00;;;5.10;77.20;;;;;;5055588;28;20210;-90
2021/12/20 12:55:02;;;;;;;11.27;3.10;;;5.10;77.20;;;;;;5001053;28;20201;-90
2021/12/20 12:57:31;;;;;;;20.53;3.70;;;5.40;78.60;;;;;;5055034;28;20206;-91
2021/12/20 13:00:12;;;;;;;5.87;3.17;;;5.70;77.50;;;;;;5054906;28;20252;-91
2021/12/20 13:02:40;;;;;;;8.33;3.10;;;5.60;75.60;;;;;;5056192;28;20166;-90
2021/12/20 13:05:07;;;;;;;6.37;3.10;;;5.40;75.90;;;;;;5056275;28;20237;-91
2021/12/20 13:07:35;;;;;;;7.47;3.03;;;5.50;76.40;;;;;;5056193;28;20187;-91